Repentance — WDF3848 — position and weather

sailwx.info

Track history (hours):
 
Tides and Currents Weather Stations Pressure Air Temp Water Temp Dewpoint Dewpoint Depression Visibility Wind Speed Wind Dir Waves Ship Positions

Repentance

Owner: Marquette Transportation Company Gulf-Inland, LLC, Jefferson, LA. More information available from US FCC via Universal Licensing System and Coast Guard Vessel Documentation Center.

Last reported at 2017-Dec-04 02:08 UTC. Time now 2017-Dec-13 14:36 UTC.
Position N 28°19' W 096°40'.
Warning: this ship's position is 9 days out of date.

Length 20 m.

Type: Towing. MMSI: 367444730.

Date/timePositionNaut miles runAvg speedWind from/ knotsBaromVisibWave heightAir tempDewpointWater temp
2017-Dec-04 02:08N 28°19' W 096°40'1 4.2
2017-Dec-04 01:58N 28°19' W 096°39'2 3.9
2017-Dec-04 01:29N 28°20' W 096°38'2 3.9
2017-Dec-04 00:59N 28°21' W 096°36'2 3.9
2017-Dec-04 00:28N 28°22' W 096°34'45 2.4
2017-Dec-03 05:33N 28°44' W 095°49'7 3.1
2017-Dec-03 03:18N 28°45' W 095°41'5 3.8
2017-Dec-03 01:54N 28°47' W 095°35'2 4.0
2017-Dec-03 01:27N 28°48' W 095°33'7 3.8
2017-Dec-02 23:32N 28°52' W 095°26'2 4.5
2017-Dec-02 23:03N 28°54' W 095°24'0 0.1
2017-Dec-02 22:50N 28°54' W 095°24'0 0.3
2017-Dec-02 22:30N 28°54' W 095°25'0 0.0
2017-Dec-02 21:57N 28°54' W 095°25'0 0.0
2017-Dec-02 19:48N 28°54' W 095°24'0 0.0
2017-Dec-02 12:19N 28°54' W 095°25'0 0.0
2017-Dec-02 10:29N 28°54' W 095°25'8 0.9
2017-Dec-02 01:33N 28°58' W 095°17'0 3.8
2017-Dec-02 01:29N 28°58' W 095°17'105 3.8
2017-Nov-30 21:47N 30°03' W 093°43'1 3.9
2017-Nov-30 21:30N 30°04' W 093°42'1 2.6
2017-Nov-30 20:58N 30°04' W 093°40'1 3.2
2017-Nov-30 20:30N 30°04' W 093°38'2 3.7
2017-Nov-30 20:00N 30°04' W 093°36'2 3.6
2017-Nov-30 19:30N 30°04' W 093°34'2 3.1
2017-Nov-30 19:00N 30°04' W 093°32'2 3.6
2017-Nov-30 18:30N 30°04' W 093°30'2 3.6
2017-Nov-30 18:00N 30°04' W 093°28'2 3.5
2017-Nov-30 17:30N 30°04' W 093°26'1 2.8
2017-Nov-30 17:00N 30°04' W 093°24'1 2.9
2017-Nov-30 16:30N 30°04' W 093°23'1 2.5
2017-Nov-30 16:00N 30°04' W 093°21'1 2.8
2017-Nov-30 15:30N 30°05' W 093°20'2 3.1
2017-Nov-30 15:00N 30°06' W 093°19'1 2.8
2017-Nov-30 14:30N 30°05' W 093°18'0 0.6
2017-Nov-30 14:00N 30°05' W 093°17'1 1.4
2017-Nov-30 13:30N 30°05' W 093°17'0 0.1
2017-Nov-30 13:00N 30°05' W 093°17'0 0.0
2017-Nov-30 12:30N 30°05' W 093°17'0 0.0
2017-Nov-30 12:00N 30°05' W 093°17'0 0.0
2017-Nov-30 11:30N 30°05' W 093°17'0 0.0
2017-Nov-30 11:00N 30°05' W 093°17'0 0.0
2017-Nov-30 10:30N 30°05' W 093°17'0 0.0
2017-Nov-30 10:00N 30°05' W 093°17'0 0.0
2017-Nov-30 09:30N 30°05' W 093°17'0 0.0
2017-Nov-30 09:00N 30°05' W 093°17'0 0.0
2017-Nov-30 08:30N 30°05' W 093°17'0 0.0
2017-Nov-30 08:00N 30°05' W 093°17'0 0.0
2017-Nov-30 07:30N 30°05' W 093°17'0 0.0
2017-Nov-30 07:00N 30°05' W 093°17'0 0.0
2017-Nov-30 06:30N 30°05' W 093°17'0 0.0
2017-Nov-30 06:00N 30°05' W 093°17'0 0.0
2017-Nov-30 05:30N 30°05' W 093°17'0 0.0
2017-Nov-30 05:00N 30°05' W 093°17'0 0.0
2017-Nov-30 04:30N 30°05' W 093°17'0 0.0
2017-Nov-30 04:00N 30°05' W 093°17'0 0.0
2017-Nov-30 03:30N 30°05' W 093°17'0 0.0
2017-Nov-30 03:00N 30°05' W 093°17'0 0.0
2017-Nov-30 02:30N 30°05' W 093°17'0 0.0
2017-Nov-30 02:00N 30°05' W 093°17'0 0.0
2017-Nov-30 01:30N 30°05' W 093°17'0 0.0
2017-Nov-30 01:00N 30°05' W 093°17'0 0.0
2017-Nov-30 00:30N 30°05' W 093°17'0 0.0
2017-Nov-30 00:00N 30°05' W 093°17'0 0.0
2017-Nov-29 23:30N 30°05' W 093°17'0 0.0
2017-Nov-29 23:00N 30°05' W 093°17'0 0.0
2017-Nov-29 22:30N 30°05' W 093°17'0 0.0
2017-Nov-29 22:00N 30°05' W 093°17'0 0.0
2017-Nov-29 21:30N 30°05' W 093°17'0 0.0
2017-Nov-29 21:00N 30°05' W 093°17'0 0.0
2017-Nov-29 20:30N 30°05' W 093°17'0 0.0
2017-Nov-29 20:00N 30°05' W 093°17'0 0.0
2017-Nov-29 19:30N 30°05' W 093°17'0 0.0
2017-Nov-29 19:00N 30°05' W 093°17'0 0.3
2017-Nov-29 18:30N 30°05' W 093°17'1 2.7
2017-Nov-29 18:00N 30°04' W 093°16'2 3.1
2017-Nov-29 17:30N 30°02' W 093°15'2 3.4
2017-Nov-29 17:00N 30°01' W 093°14'2 3.4
2017-Nov-29 16:30N 29°60' W 093°13'2 3.6
2017-Nov-29 16:00N 29°58' W 093°12'2 3.5
2017-Nov-29 15:30N 29°57' W 093°10'2 3.2
2017-Nov-29 15:00N 29°56' W 093°09'1 2.7
2017-Nov-29 14:30N 29°56' W 093°07'2 3.2
2017-Nov-29 14:00N 29°56' W 093°05'2 3.0
2017-Nov-29 13:29N 29°56' W 093°04'37 3.1
2017-Nov-29 01:30N 29°51' W 092°22'2 3.1
2017-Nov-29 01:00N 29°51' W 092°20'1 1.4
2017-Nov-29 00:30N 29°50' W 092°19'1 2.9
2017-Nov-29 00:01N 29°50' W 092°18'2 3.1
2017-Nov-28 23:30N 29°49' W 092°17'2 3.3
2017-Nov-28 23:00N 29°48' W 092°15'2 3.6
2017-Nov-28 22:31N 29°47' W 092°13'1 1.6
2017-Nov-28 22:00N 29°47' W 092°12'1 1.6
2017-Nov-28 21:31N 29°47' W 092°11'0 0.4
2017-Nov-28 21:01N 29°47' W 092°11'1 1.9
2017-Nov-28 20:30N 29°47' W 092°10'2 3.9
2017-Nov-28 20:01N 29°47' W 092°08'2 3.8
2017-Nov-28 19:30N 29°48' W 092°06'2 3.6
2017-Nov-28 19:00N 29°49' W 092°04'2 3.8
2017-Nov-28 18:31N 29°49' W 092°02'2 4.0
2017-Nov-28 18:00N 29°50' W 091°60'2 3.5
2017-Nov-28 17:31N 29°50' W 091°58'  
2017-Nov-25 06:01N 29°38' W 091°19'0 5.4
2017-Nov-25 05:56N 29°38' W 091°20'2 2.8
2017-Nov-25 05:15N 29°39' W 091°22'0 1.1
2017-Nov-25 05:00N 29°39' W 091°22'3 5.3
2017-Nov-25 04:29N 29°39' W 091°25'5 3.7
2017-Nov-25 03:09N 29°42' W 091°30'1 4.9
2017-Nov-25 02:53N 29°42' W 091°32'24 4.2
2017-Nov-24 21:11N 29°50' W 091°58'1 5.3
2017-Nov-24 20:57N 29°50' W 091°59'2 3.9
2017-Nov-24 20:30N 29°49' W 092°01'3 5.1
2017-Nov-24 20:00N 29°48' W 092°04'3 5.3
2017-Nov-24 19:30N 29°48' W 092°07'3 5.3
2017-Nov-24 19:00N 29°47' W 092°10'2 4.2
2017-Nov-24 18:30N 29°47' W 092°12'2 3.6
2017-Nov-24 18:00N 29°48' W 092°14'1 2.5
2017-Nov-24 17:30N 29°48' W 092°15'1 2.4
2017-Nov-24 17:00N 29°49' W 092°16'1 2.6
2017-Nov-24 16:30N 29°50' W 092°18'2 4.8
2017-Nov-24 16:00N 29°51' W 092°20'3 4.4
2017-Nov-24 15:27N 29°52' W 092°22'4 4.4
2017-Nov-24 14:34N 29°53' W 092°27'30 2.6
2017-Nov-24 03:01N 29°56' W 093°01'1 5.3
2017-Nov-24 02:55N 29°56' W 093°01'2 5.1
2017-Nov-24 02:30N 29°56' W 093°04'  
Track history (hours):
 
Tides and Currents Weather Stations Pressure Air Temp Water Temp Dewpoint Dewpoint Depression Visibility Wind Speed Wind Dir Waves Ship Positions

Repentance

Owner: Marquette Transportation Company Gulf-Inland, LLC, Jefferson, LA. More information available from US FCC via Universal Licensing System and Coast Guard Vessel Documentation Center.

Last reported at 2017-Dec-04 02:08 UTC. Time now 2017-Dec-13 14:36 UTC.
Position N 28°19' W 096°40'.
Warning: this ship's position is 9 days out of date.

Length 20 m.

Type: Towing. MMSI: 367444730.

Date/timePositionNaut miles runAvg speedWind from/ knotsBaromVisibWave heightAir tempDewpointWater temp
2017-Dec-04 02:08N 28°19' W 096°40'1 4.2
2017-Dec-04 01:58N 28°19' W 096°39'2 3.9
2017-Dec-04 01:29N 28°20' W 096°38'2 3.9
2017-Dec-04 00:59N 28°21' W 096°36'2 3.9
2017-Dec-04 00:28N 28°22' W 096°34'45 2.4
2017-Dec-03 05:33N 28°44' W 095°49'7 3.1
2017-Dec-03 03:18N 28°45' W 095°41'5 3.8
2017-Dec-03 01:54N 28°47' W 095°35'2 4.0
2017-Dec-03 01:27N 28°48' W 095°33'7 3.8
2017-Dec-02 23:32N 28°52' W 095°26'2 4.5
2017-Dec-02 23:03N 28°54' W 095°24'0 0.1
2017-Dec-02 22:50N 28°54' W 095°24'0 0.3
2017-Dec-02 22:30N 28°54' W 095°25'0 0.0
2017-Dec-02 21:57N 28°54' W 095°25'0 0.0
2017-Dec-02 19:48N 28°54' W 095°24'0 0.0
2017-Dec-02 12:19N 28°54' W 095°25'0 0.0
2017-Dec-02 10:29N 28°54' W 095°25'8 0.9
2017-Dec-02 01:33N 28°58' W 095°17'0 3.8
2017-Dec-02 01:29N 28°58' W 095°17'105 3.8
2017-Nov-30 21:47N 30°03' W 093°43'1 3.9
2017-Nov-30 21:30N 30°04' W 093°42'1 2.6
2017-Nov-30 20:58N 30°04' W 093°40'1 3.2
2017-Nov-30 20:30N 30°04' W 093°38'2 3.7
2017-Nov-30 20:00N 30°04' W 093°36'2 3.6
2017-Nov-30 19:30N 30°04' W 093°34'2 3.1
2017-Nov-30 19:00N 30°04' W 093°32'2 3.6
2017-Nov-30 18:30N 30°04' W 093°30'2 3.6
2017-Nov-30 18:00N 30°04' W 093°28'2 3.5
2017-Nov-30 17:30N 30°04' W 093°26'1 2.8
2017-Nov-30 17:00N 30°04' W 093°24'1 2.9
2017-Nov-30 16:30N 30°04' W 093°23'1 2.5
2017-Nov-30 16:00N 30°04' W 093°21'1 2.8
2017-Nov-30 15:30N 30°05' W 093°20'2 3.1
2017-Nov-30 15:00N 30°06' W 093°19'1 2.8
2017-Nov-30 14:30N 30°05' W 093°18'0 0.6
2017-Nov-30 14:00N 30°05' W 093°17'1 1.4
2017-Nov-30 13:30N 30°05' W 093°17'0 0.1
2017-Nov-30 13:00N 30°05' W 093°17'0 0.0
2017-Nov-30 12:30N 30°05' W 093°17'0 0.0
2017-Nov-30 12:00N 30°05' W 093°17'0 0.0
2017-Nov-30 11:30N 30°05' W 093°17'0 0.0
2017-Nov-30 11:00N 30°05' W 093°17'0 0.0
2017-Nov-30 10:30N 30°05' W 093°17'0 0.0
2017-Nov-30 10:00N 30°05' W 093°17'0 0.0
2017-Nov-30 09:30N 30°05' W 093°17'0 0.0
2017-Nov-30 09:00N 30°05' W 093°17'0 0.0
2017-Nov-30 08:30N 30°05' W 093°17'0 0.0
2017-Nov-30 08:00N 30°05' W 093°17'0 0.0
2017-Nov-30 07:30N 30°05' W 093°17'0 0.0
2017-Nov-30 07:00N 30°05' W 093°17'0 0.0
2017-Nov-30 06:30N 30°05' W 093°17'0 0.0
2017-Nov-30 06:00N 30°05' W 093°17'0 0.0
2017-Nov-30 05:30N 30°05' W 093°17'0 0.0
2017-Nov-30 05:00N 30°05' W 093°17'0 0.0
2017-Nov-30 04:30N 30°05' W 093°17'0 0.0
2017-Nov-30 04:00N 30°05' W 093°17'0 0.0
2017-Nov-30 03:30N 30°05' W 093°17'0 0.0
2017-Nov-30 03:00N 30°05' W 093°17'0 0.0
2017-Nov-30 02:30N 30°05' W 093°17'0 0.0
2017-Nov-30 02:00N 30°05' W 093°17'0 0.0
2017-Nov-30 01:30N 30°05' W 093°17'0 0.0
2017-Nov-30 01:00N 30°05' W 093°17'0 0.0
2017-Nov-30 00:30N 30°05' W 093°17'0 0.0
2017-Nov-30 00:00N 30°05' W 093°17'0 0.0
2017-Nov-29 23:30N 30°05' W 093°17'0 0.0
2017-Nov-29 23:00N 30°05' W 093°17'0 0.0
2017-Nov-29 22:30N 30°05' W 093°17'0 0.0
2017-Nov-29 22:00N 30°05' W 093°17'0 0.0
2017-Nov-29 21:30N 30°05' W 093°17'0 0.0
2017-Nov-29 21:00N 30°05' W 093°17'0 0.0
2017-Nov-29 20:30N 30°05' W 093°17'0 0.0
2017-Nov-29 20:00N 30°05' W 093°17'0 0.0
2017-Nov-29 19:30N 30°05' W 093°17'0 0.0
2017-Nov-29 19:00N 30°05' W 093°17'0 0.3
2017-Nov-29 18:30N 30°05' W 093°17'1 2.7
2017-Nov-29 18:00N 30°04' W 093°16'2 3.1
2017-Nov-29 17:30N 30°02' W 093°15'2 3.4
2017-Nov-29 17:00N 30°01' W 093°14'2 3.4
2017-Nov-29 16:30N 29°60' W 093°13'2 3.6
2017-Nov-29 16:00N 29°58' W 093°12'2 3.5
2017-Nov-29 15:30N 29°57' W 093°10'2 3.2
2017-Nov-29 15:00N 29°56' W 093°09'1 2.7
2017-Nov-29 14:30N 29°56' W 093°07'2 3.2
2017-Nov-29 14:00N 29°56' W 093°05'2 3.0
2017-Nov-29 13:29N 29°56' W 093°04'37 3.1
2017-Nov-29 01:30N 29°51' W 092°22'2 3.1
2017-Nov-29 01:00N 29°51' W 092°20'1 1.4
2017-Nov-29 00:30N 29°50' W 092°19'1 2.9
2017-Nov-29 00:01N 29°50' W 092°18'2 3.1
2017-Nov-28 23:30N 29°49' W 092°17'2 3.3
2017-Nov-28 23:00N 29°48' W 092°15'2 3.6
2017-Nov-28 22:31N 29°47' W 092°13'1 1.6
2017-Nov-28 22:00N 29°47' W 092°12'1 1.6
2017-Nov-28 21:31N 29°47' W 092°11'0 0.4
2017-Nov-28 21:01N 29°47' W 092°11'1 1.9
2017-Nov-28 20:30N 29°47' W 092°10'2 3.9
2017-Nov-28 20:01N 29°47' W 092°08'2 3.8
2017-Nov-28 19:30N 29°48' W 092°06'2 3.6
2017-Nov-28 19:00N 29°49' W 092°04'2 3.8
2017-Nov-28 18:31N 29°49' W 092°02'2 4.0
2017-Nov-28 18:00N 29°50' W 091°60'2 3.5
2017-Nov-28 17:31N 29°50' W 091°58'  
2017-Nov-25 06:01N 29°38' W 091°19'0 5.4
2017-Nov-25 05:56N 29°38' W 091°20'2 2.8
2017-Nov-25 05:15N 29°39' W 091°22'0 1.1
2017-Nov-25 05:00N 29°39' W 091°22'3 5.3
2017-Nov-25 04:29N 29°39' W 091°25'5 3.7
2017-Nov-25 03:09N 29°42' W 091°30'1 4.9
2017-Nov-25 02:53N 29°42' W 091°32'24 4.2
2017-Nov-24 21:11N 29°50' W 091°58'1 5.3
2017-Nov-24 20:57N 29°50' W 091°59'2 3.9
2017-Nov-24 20:30N 29°49' W 092°01'3 5.1
2017-Nov-24 20:00N 29°48' W 092°04'3 5.3
2017-Nov-24 19:30N 29°48' W 092°07'3 5.3
2017-Nov-24 19:00N 29°47' W 092°10'2 4.2
2017-Nov-24 18:30N 29°47' W 092°12'2 3.6
2017-Nov-24 18:00N 29°48' W 092°14'1 2.5
2017-Nov-24 17:30N 29°48' W 092°15'1 2.4
2017-Nov-24 17:00N 29°49' W 092°16'1 2.6
2017-Nov-24 16:30N 29°50' W 092°18'2 4.8
2017-Nov-24 16:00N 29°51' W 092°20'3 4.4
2017-Nov-24 15:27N 29°52' W 092°22'4 4.4
2017-Nov-24 14:34N 29°53' W 092°27'30 2.6
2017-Nov-24 03:01N 29°56' W 093°01'1 5.3
2017-Nov-24 02:55N 29°56' W 093°01'2 5.1
2017-Nov-24 02:30N 29°56' W 093°04'  

Dump ship's entire track history